Time;durP1;ratioP1;P1;durP2;ratioP2;P2;SDS_P1;SDS_P2;PMS_P1;PMS_P2;Temp;Humidity;BMP_temperature;BMP_pressure;BME280_temperature;BME280_humidity;BME280_pressure;Samples;Min_cycle;Max_cycle;Signal;HPM_P1;HPM_P2
2021/08/21 00:01:38;;;;;;;6.40;5.90;;;;;;;;;;5057241;28;20618;-75
2021/08/21 00:04:04;;;;;;;4.53;4.23;;;;;;;;;;5055820;28;20195;-75
2021/08/21 00:06:29;;;;;;;6.50;5.90;;;;;;;;;;5053161;28;20662;-75
2021/08/21 00:08:57;;;;;;;5.67;5.10;;;;;;;;;;5056917;28;20574;-75
2021/08/21 00:11:22;;;;;;;4.77;4.37;;;;;;;;;;5053468;28;20180;-75
2021/08/21 00:13:47;;;;;;;4.80;4.30;;;;;;;;;;5058439;28;20878;-75
2021/08/21 00:16:12;;;;;;;4.63;4.20;;;;;;;;;;5059930;28;20198;-76
2021/08/21 00:18:38;;;;;;;5.23;4.73;;;;;;;;;;5059569;28;20190;-76
2021/08/21 00:21:03;;;;;;;4.70;4.30;;;;;;;;;;5056358;28;20183;-75
2021/08/21 00:23:28;;;;;;;4.60;4.20;;;;;;;;;;5055577;28;20314;-75
2021/08/21 00:25:53;;;;;;;6.00;5.40;;;;;;;;;;5059220;28;20677;-75
2021/08/21 00:28:19;;;;;;;5.10;4.60;;;;;;;;;;5057325;28;20218;-75
2021/08/21 00:30:44;;;;;;;5.40;4.90;;;;;;;;;;5055312;28;20963;-74
2021/08/21 00:33:09;;;;;;;5.00;4.53;;;;;;;;;;5055030;28;21166;-75
2021/08/21 00:35:34;;;;;;;5.37;4.87;;;;;;;;;;5053641;28;20201;-74
2021/08/21 00:38:00;;;;;;;6.40;5.37;;;;;;;;;;5057544;28;20219;-75
2021/08/21 00:40:25;;;;;;;6.20;5.60;;;;;;;;;;5057480;28;20188;-75
2021/08/21 00:42:53;;;;;;;5.50;5.00;;;;;;;;;;5054877;28;20250;-75
2021/08/21 00:45:19;;;;;;;6.00;5.50;;;;;;;;;;5053557;28;20240;-75
2021/08/21 00:47:44;;;;;;;7.60;6.50;;;;;;;;;;5053398;28;20460;-74
2021/08/21 00:50:10;;;;;;;6.70;5.87;;;;;;;;;;5057333;28;20187;-74
2021/08/21 00:52:35;;;;;;;5.93;5.43;;;;;;;;;;5054956;28;20179;-74
2021/08/21 00:55:01;;;;;;;6.80;6.03;;;;;;;;;;5053691;28;20197;-75
2021/08/21 00:57:27;;;;;;;6.40;5.80;;;;;;;;;;5052781;28;20206;-75
2021/08/21 00:59:52;;;;;;;6.60;6.00;;;;;;;;;;5057562;28;20187;-75
2021/08/21 01:02:18;;;;;;;6.37;5.77;;;;;;;;;;5053809;28;20203;-75
2021/08/21 01:04:45;;;;;;;8.70;7.03;;;;;;;;;;5052742;28;20425;-75
2021/08/21 01:07:10;;;;;;;6.60;6.00;;;;;;;;;;5058900;28;20663;-75
2021/08/21 01:09:38;;;;;;;6.73;6.10;;;;;;;;;;5053871;28;20425;-75
2021/08/21 01:12:07;;;;;;;6.40;5.80;;;;;;;;;;5052960;28;20183;-75
2021/08/21 01:14:33;;;;;;;6.50;5.90;;;;;;;;;;5054052;28;20836;-74
2021/08/21 01:16:58;;;;;;;6.57;5.97;;;;;;;;;;5056862;28;20454;-75
2021/08/21 01:19:24;;;;;;;7.37;6.67;;;;;;;;;;5058188;28;20658;-75
2021/08/21 01:21:52;;;;;;;7.40;6.70;;;;;;;;;;5054820;28;20219;-75
2021/08/21 01:24:18;;;;;;;7.57;6.23;;;;;;;;;;5056802;28;20265;-75
2021/08/21 01:26:52;;;;;;;9.20;7.17;;;;;;;;;;5055813;28;20500;-75
2021/08/21 01:29:17;;;;;;;8.20;7.40;;;;;;;;;;5052861;28;20183;-75
2021/08/21 01:31:43;;;;;;;7.90;6.83;;;;;;;;;;5056297;28;20428;-75
2021/08/21 01:34:10;;;;;;;8.50;7.70;;;;;;;;;;5053011;28;20184;-75
2021/08/21 01:36:42;;;;;;;8.83;7.53;;;;;;;;;;5054830;28;20273;-75
2021/08/21 01:39:08;;;;;;;8.50;7.63;;;;;;;;;;5058401;28;20449;-75
2021/08/21 01:41:33;;;;;;;8.60;7.80;;;;;;;;;;5054941;28;20433;-75
2021/08/21 01:43:59;;;;;;;11.70;8.03;;;;;;;;;;5055873;28;20229;-75
2021/08/21 01:46:24;;;;;;;8.77;7.87;;;;;;;;;;5051371;28;20203;-75
2021/08/21 01:48:49;;;;;;;9.70;8.23;;;;;;;;;;5051265;28;20231;-75
2021/08/21 01:51:15;;;;;;;9.23;8.27;;;;;;;;;;5052252;28;20187;-75
2021/08/21 01:53:40;;;;;;;8.93;8.03;;;;;;;;;;5054790;28;20194;-75
2021/08/21 01:56:05;;;;;;;9.23;8.33;;;;;;;;;;5057720;28;20178;-75
2021/08/21 01:58:31;;;;;;;9.10;8.20;;;;;;;;;;5056508;28;20183;-75
2021/08/21 02:00:56;;;;;;;10.10;8.70;;;;;;;;;;5050127;28;20190;-75
2021/08/21 02:03:21;;;;;;;8.80;7.90;;;;;;;;;;5048733;28;20191;-75
2021/08/21 02:05:46;;;;;;;8.83;8.03;;;;;;;;;;5053626;28;20210;-75
2021/08/21 02:08:12;;;;;;;9.87;8.87;;;;;;;;;;5051263;28;20204;-75
2021/08/21 02:10:37;;;;;;;10.57;9.47;;;;;;;;;;5055444;28;20186;-75
2021/08/21 02:13:02;;;;;;;10.53;9.13;;;;;;;;;;5052828;28;20235;-75
2021/08/21 02:15:28;;;;;;;10.73;8.63;;;;;;;;;;5056275;28;20179;-75
2021/08/21 02:17:53;;;;;;;9.60;8.60;;;;;;;;;;5049450;28;20198;-75
2021/08/21 02:20:18;;;;;;;9.97;8.67;;;;;;;;;;5058272;28;20194;-75
2021/08/21 02:22:44;;;;;;;9.30;8.40;;;;;;;;;;5051351;28;20178;-75
2021/08/21 02:25:10;;;;;;;9.50;8.33;;;;;;;;;;5050800;28;20184;-75
2021/08/21 02:27:56;;;;;;;9.33;8.33;;;;;;;;;;5053606;28;20213;-75
2021/08/21 02:30:22;;;;;;;9.40;8.13;;;;;;;;;;5053136;28;20508;-74
2021/08/21 02:32:47;;;;;;;9.73;8.77;;;;;;;;;;5054917;28;20471;-75
2021/08/21 02:35:13;;;;;;;8.77;7.87;;;;;;;;;;5057903;28;20183;-75
2021/08/21 02:37:38;;;;;;;13.50;8.20;;;;;;;;;;5055187;28;20211;-75
2021/08/21 02:40:04;;;;;;;9.20;8.17;;;;;;;;;;5051534;28;21200;-75
2021/08/21 02:42:29;;;;;;;8.40;7.60;;;;;;;;;;5053055;28;20278;-75
2021/08/21 02:44:54;;;;;;;9.13;8.23;;;;;;;;;;5057272;28;20180;-74
2021/08/21 02:47:19;;;;;;;10.47;8.70;;;;;;;;;;5047382;28;20200;-75
2021/08/21 02:49:45;;;;;;;8.80;7.93;;;;;;;;;;5053697;28;20174;-75
2021/08/21 02:52:10;;;;;;;8.17;7.30;;;;;;;;;;5054193;28;20176;-75
2021/08/21 02:54:35;;;;;;;9.20;7.77;;;;;;;;;;5053474;28;20171;-75
2021/08/21 02:57:00;;;;;;;8.57;7.23;;;;;;;;;;5050015;28;20261;-75
2021/08/21 02:59:25;;;;;;;13.13;7.53;;;;;;;;;;5054252;28;20195;-75
2021/08/21 03:01:51;;;;;;;7.70;7.00;;;;;;;;;;5049252;28;20199;-75
2021/08/21 03:04:16;;;;;;;10.77;7.93;;;;;;;;;;5055215;28;20286;-75
2021/08/21 03:06:41;;;;;;;9.20;7.77;;;;;;;;;;5053706;28;20980;-75
2021/08/21 03:09:06;;;;;;;10.20;8.77;;;;;;;;;;5051246;28;20225;-75
2021/08/21 03:11:32;;;;;;;8.73;7.93;;;;;;;;;;5051427;28;20270;-75
2021/08/21 03:13:57;;;;;;;8.87;7.93;;;;;;;;;;5051114;28;20203;-75
2021/08/21 03:16:23;;;;;;;7.90;7.20;;;;;;;;;;5057561;28;20206;-75
2021/08/21 03:18:48;;;;;;;8.40;7.50;;;;;;;;;;5053768;28;21051;-75
2021/08/21 03:21:15;;;;;;;8.93;7.80;;;;;;;;;;5054537;28;20639;-75
2021/08/21 03:23:40;;;;;;;9.97;8.30;;;;;;;;;;5046470;28;20209;-75
2021/08/21 03:26:06;;;;;;;10.47;8.60;;;;;;;;;;5050000;28;20925;-75
2021/08/21 03:28:31;;;;;;;12.77;8.17;;;;;;;;;;5046735;28;20212;-75
2021/08/21 03:30:57;;;;;;;8.03;7.23;;;;;;;;;;5056114;28;20516;-75
2021/08/21 03:33:22;;;;;;;8.10;7.30;;;;;;;;;;5057456;28;20303;-75
2021/08/21 03:35:47;;;;;;;9.00;8.00;;;;;;;;;;5057225;28;20179;-75
2021/08/21 03:38:13;;;;;;;8.83;8.03;;;;;;;;;;5053930;28;20297;-75
2021/08/21 03:40:38;;;;;;;9.20;7.47;;;;;;;;;;5056159;28;20628;-75
2021/08/21 03:43:03;;;;;;;8.80;7.90;;;;;;;;;;5054104;28;20187;-74
2021/08/21 03:45:29;;;;;;;8.43;7.63;;;;;;;;;;5053486;28;20198;-75
2021/08/21 03:47:54;;;;;;;8.23;6.93;;;;;;;;;;5056703;28;20642;-75
2021/08/21 03:50:19;;;;;;;8.50;7.70;;;;;;;;;;5054466;28;20198;-74
2021/08/21 03:52:44;;;;;;;7.87;6.60;;;;;;;;;;5056340;28;20183;-75
2021/08/21 03:55:10;;;;;;;7.83;7.10;;;;;;;;;;5059606;28;20175;-74
2021/08/21 03:57:35;;;;;;;8.23;7.40;;;;;;;;;;5059867;28;20207;-75
2021/08/21 04:00:01;;;;;;;7.30;6.60;;;;;;;;;;5056464;28;20175;-75
2021/08/21 04:02:26;;;;;;;8.20;6.97;;;;;;;;;;5051932;28;20248;-75
2021/08/21 04:04:51;;;;;;;8.37;7.37;;;;;;;;;;5049726;28;20199;-75
2021/08/21 04:07:17;;;;;;;7.60;6.90;;;;;;;;;;5053834;28;25638;-75
2021/08/21 04:09:42;;;;;;;7.50;6.70;;;;;;;;;;5055995;28;20654;-75
2021/08/21 04:12:08;;;;;;;6.93;6.33;;;;;;;;;;5056397;28;20192;-75
2021/08/21 04:14:33;;;;;;;7.83;7.07;;;;;;;;;;5058795;28;20171;-75
2021/08/21 04:16:58;;;;;;;7.47;6.57;;;;;;;;;;5053306;28;20195;-75
2021/08/21 04:19:23;;;;;;;8.57;7.67;;;;;;;;;;5055191;28;20701;-75
2021/08/21 04:21:49;;;;;;;7.20;6.50;;;;;;;;;;5054660;28;20636;-75
2021/08/21 04:24:14;;;;;;;8.37;7.57;;;;;;;;;;5057242;28;20188;-75
2021/08/21 04:26:39;;;;;;;8.53;7.63;;;;;;;;;;5055701;28;20212;-75
2021/08/21 04:29:04;;;;;;;9.80;7.80;;;;;;;;;;5058346;28;20282;-75
2021/08/21 04:31:30;;;;;;;8.60;7.67;;;;;;;;;;5057738;28;20178;-75
2021/08/21 04:33:55;;;;;;;8.80;7.67;;;;;;;;;;5059415;28;20171;-75
2021/08/21 04:36:20;;;;;;;8.80;7.90;;;;;;;;;;5051595;28;20195;-75
2021/08/21 04:38:45;;;;;;;9.53;7.60;;;;;;;;;;5061997;28;20222;-75
2021/08/21 04:41:11;;;;;;;8.90;7.33;;;;;;;;;;5055675;28;20187;-75
2021/08/21 04:43:36;;;;;;;8.73;7.83;;;;;;;;;;5058276;28;20555;-75
2021/08/21 04:46:01;;;;;;;8.80;7.90;;;;;;;;;;5047158;28;20237;-74
2021/08/21 04:48:27;;;;;;;8.60;7.80;;;;;;;;;;5053993;28;20218;-75
2021/08/21 04:50:52;;;;;;;9.20;8.30;;;;;;;;;;5054015;28;20195;-75
2021/08/21 04:53:17;;;;;;;8.43;7.63;;;;;;;;;;5050331;28;20224;-75
2021/08/21 04:55:42;;;;;;;8.73;7.93;;;;;;;;;;5055409;28;20186;-75
2021/08/21 04:58:08;;;;;;;10.27;8.67;;;;;;;;;;5055604;28;20196;-75
2021/08/21 05:00:33;;;;;;;9.33;7.80;;;;;;;;;;5050506;28;20583;-75
2021/08/21 05:02:58;;;;;;;8.87;8.03;;;;;;;;;;5054073;28;20175;-75
2021/08/21 05:05:25;;;;;;;8.63;7.83;;;;;;;;;;5054290;28;20175;-75
2021/08/21 05:07:50;;;;;;;10.43;7.87;;;;;;;;;;5056262;28;20210;-74
2021/08/21 05:10:15;;;;;;;9.90;8.90;;;;;;;;;;5055979;28;20996;-75
2021/08/21 05:12:41;;;;;;;9.07;8.17;;;;;;;;;;5051090;28;20258;-75
2021/08/21 05:15:06;;;;;;;8.73;7.70;;;;;;;;;;5054165;28;20270;-75
2021/08/21 05:17:32;;;;;;;10.23;8.90;;;;;;;;;;5057952;28;20627;-75
2021/08/21 05:20:04;;;;;;;9.43;8.53;;;;;;;;;;5058111;28;20188;-75
2021/08/21 05:22:40;;;;;;;9.93;8.93;;;;;;;;;;5052081;28;20430;-75
2021/08/21 05:25:06;;;;;;;10.00;8.93;;;;;;;;;;5053329;28;20422;-75
2021/08/21 05:27:31;;;;;;;9.63;8.63;;;;;;;;;;5053689;28;20920;-75
2021/08/21 05:29:56;;;;;;;10.83;8.57;;;;;;;;;;5055525;28;20183;-75
2021/08/21 05:32:22;;;;;;;9.60;8.60;;;;;;;;;;5054231;28;20187;-75
2021/08/21 05:34:47;;;;;;;12.70;9.03;;;;;;;;;;5055857;28;20182;-75
2021/08/21 05:37:12;;;;;;;11.50;9.80;;;;;;;;;;5054921;28;20249;-75
2021/08/21 05:39:37;;;;;;;9.50;8.50;;;;;;;;;;5055593;28;20303;-75
2021/08/21 05:42:03;;;;;;;10.10;8.57;;;;;;;;;;5048980;28;25353;-75
2021/08/21 05:44:28;;;;;;;12.83;8.13;;;;;;;;;;5057719;28;20221;-75
2021/08/21 05:46:53;;;;;;;9.80;8.63;;;;;;;;;;5050961;28;20207;-75
2021/08/21 05:49:18;;;;;;;9.70;8.63;;;;;;;;;;5049701;28;20176;-74
2021/08/21 05:51:44;;;;;;;9.60;8.70;;;;;;;;;;5055378;28;20183;-75
2021/08/21 05:54:09;;;;;;;9.03;8.10;;;;;;;;;;5047676;28;20270;-75
2021/08/21 05:56:34;;;;;;;11.60;9.10;;;;;;;;;;5047787;28;20611;-74
2021/08/21 05:58:59;;;;;;;9.33;8.43;;;;;;;;;;5049572;28;20187;-75
2021/08/21 06:01:25;;;;;;;11.10;9.10;;;;;;;;;;5050416;28;20191;-75
2021/08/21 06:03:51;;;;;;;9.80;8.73;;;;;;;;;;5053723;28;20286;-75
2021/08/21 06:06:19;;;;;;;11.03;9.83;;;;;;;;;;5060276;28;20664;-75
2021/08/21 06:08:44;;;;;;;10.57;9.47;;;;;;;;;;5062509;28;20819;-75
2021/08/21 06:11:09;;;;;;;10.80;9.10;;;;;;;;;;5057418;28;20512;-75
2021/08/21 06:13:34;;;;;;;8.50;7.63;;;;;;;;;;5060464;28;20191;-75
2021/08/21 06:16:00;;;;;;;10.70;9.30;;;;;;;;;;5060323;28;20543;-75
2021/08/21 06:18:25;;;;;;;11.27;9.40;;;;;;;;;;5053935;28;20329;-75
2021/08/21 06:20:50;;;;;;;10.67;8.93;;;;;;;;;;5055561;28;20279;-75
2021/08/21 06:23:16;;;;;;;12.60;8.90;;;;;;;;;;5054782;28;20184;-75
2021/08/21 06:25:41;;;;;;;10.13;8.13;;;;;;;;;;5049729;28;20191;-75
2021/08/21 06:28:06;;;;;;;10.17;8.47;;;;;;;;;;5052043;28;20211;-75
2021/08/21 06:30:32;;;;;;;9.93;8.93;;;;;;;;;;5050759;28;20933;-75
2021/08/21 06:32:57;;;;;;;9.77;8.77;;;;;;;;;;5056284;28;20214;-75
2021/08/21 06:35:22;;;;;;;10.80;9.07;;;;;;;;;;5055089;28;20190;-75
2021/08/21 06:37:47;;;;;;;10.00;9.00;;;;;;;;;;5054402;28;20206;-75
2021/08/21 06:40:13;;;;;;;11.23;9.20;;;;;;;;;;5054661;28;20599;-75
2021/08/21 06:42:38;;;;;;;10.20;9.20;;;;;;;;;;5048770;28;20221;-75
2021/08/21 06:45:04;;;;;;;8.50;7.60;;;;;;;;;;5052859;28;20175;-75
2021/08/21 06:47:29;;;;;;;9.30;8.30;;;;;;;;;;5050003;28;20215;-75
2021/08/21 06:49:54;;;;;;;11.03;9.03;;;;;;;;;;5054883;28;20226;-75
2021/08/21 06:52:19;;;;;;;11.10;9.10;;;;;;;;;;5058701;28;20639;-75
2021/08/21 06:54:45;;;;;;;10.83;9.27;;;;;;;;;;5054169;28;21112;-75
2021/08/21 06:57:10;;;;;;;9.70;8.70;;;;;;;;;;5052668;28;20207;-75
2021/08/21 06:59:35;;;;;;;11.27;9.43;;;;;;;;;;5050289;28;20199;-74
2021/08/21 07:02:01;;;;;;;9.63;8.53;;;;;;;;;;5048630;28;20659;-75
2021/08/21 07:04:26;;;;;;;9.57;8.60;;;;;;;;;;5055416;28;20555;-75
2021/08/21 07:06:51;;;;;;;9.67;8.47;;;;;;;;;;5057315;28;20453;-74
2021/08/21 07:09:17;;;;;;;9.63;8.10;;;;;;;;;;5050519;28;20635;-75
2021/08/21 07:11:42;;;;;;;11.00;8.50;;;;;;;;;;5050782;28;20516;-74
2021/08/21 07:14:07;;;;;;;10.30;9.20;;;;;;;;;;5051137;28;20305;-75
2021/08/21 07:16:32;;;;;;;10.70;9.67;;;;;;;;;;5056280;28;20202;-75
2021/08/21 07:18:58;;;;;;;9.97;8.47;;;;;;;;;;5058723;28;20179;-74
2021/08/21 07:21:24;;;;;;;10.23;8.40;;;;;;;;;;5053400;28;20672;-75
2021/08/21 07:23:49;;;;;;;9.20;8.17;;;;;;;;;;5054472;28;20189;-75
2021/08/21 07:26:15;;;;;;;9.57;8.10;;;;;;;;;;5055691;28;20433;-74
2021/08/21 07:28:40;;;;;;;11.07;9.17;;;;;;;;;;5053739;28;20345;-74
2021/08/21 07:31:05;;;;;;;9.43;8.40;;;;;;;;;;5054390;28;20180;-74
2021/08/21 07:33:30;;;;;;;9.70;8.70;;;;;;;;;;5051265;28;20198;-74
2021/08/21 07:35:56;;;;;;;12.77;9.77;;;;;;;;;;5053437;28;20270;-74
2021/08/21 07:38:21;;;;;;;10.40;9.30;;;;;;;;;;5051250;28;20219;-75
2021/08/21 07:40:46;;;;;;;11.57;9.50;;;;;;;;;;5054387;28;20191;-74
2021/08/21 07:43:12;;;;;;;9.63;8.60;;;;;;;;;;5056469;28;20183;-74
2021/08/21 07:45:37;;;;;;;9.93;8.90;;;;;;;;;;5052365;28;20624;-74
2021/08/21 07:48:02;;;;;;;9.67;8.67;;;;;;;;;;5059593;28;20210;-74
2021/08/21 07:50:28;;;;;;;9.17;8.20;;;;;;;;;;5054451;28;20182;-75
2021/08/21 07:52:53;;;;;;;10.80;9.57;;;;;;;;;;5051677;28;20211;-75
2021/08/21 07:55:18;;;;;;;11.00;9.80;;;;;;;;;;5051999;28;20187;-76
2021/08/21 07:57:43;;;;;;;12.27;9.70;;;;;;;;;;5053550;28;20230;-75
2021/08/21 08:00:09;;;;;;;11.30;10.10;;;;;;;;;;5052259;28;20525;-75
2021/08/21 08:02:34;;;;;;;9.83;8.83;;;;;;;;;;5048997;28;20294;-74
2021/08/21 08:04:59;;;;;;;10.80;9.60;;;;;;;;;;5056403;28;20182;-75
2021/08/21 08:07:25;;;;;;;11.40;10.23;;;;;;;;;;5056026;28;20207;-75
2021/08/21 08:09:50;;;;;;;11.93;10.73;;;;;;;;;;5050160;28;20200;-74
2021/08/21 08:12:15;;;;;;;12.47;10.20;;;;;;;;;;5048863;28;20229;-74
2021/08/21 08:14:41;;;;;;;13.47;11.23;;;;;;;;;;5054863;28;20551;-74
2021/08/21 08:17:06;;;;;;;14.00;11.10;;;;;;;;;;5046162;28;20256;-74
2021/08/21 08:19:32;;;;;;;11.50;10.30;;;;;;;;;;5059303;28;20444;-75
2021/08/21 08:21:57;;;;;;;12.87;11.10;;;;;;;;;;5064130;28;20179;-74
2021/08/21 08:24:23;;;;;;;12.87;11.43;;;;;;;;;;5058852;28;20180;-75
2021/08/21 08:26:49;;;;;;;13.93;11.87;;;;;;;;;;5052305;28;20910;-75
2021/08/21 08:29:14;;;;;;;14.43;12.93;;;;;;;;;;5053013;28;20438;-74
2021/08/21 08:31:39;;;;;;;14.50;12.33;;;;;;;;;;5055664;28;20278;-75
2021/08/21 08:34:05;;;;;;;15.03;13.40;;;;;;;;;;5057112;28;20183;-74
2021/08/21 08:36:32;;;;;;;15.90;14.30;;;;;;;;;;5051153;28;20678;-75
2021/08/21 08:38:58;;;;;;;15.83;13.10;;;;;;;;;;5054063;28;20189;-73
2021/08/21 08:41:24;;;;;;;17.50;12.97;;;;;;;;;;5056836;28;20433;-73
2021/08/21 08:43:49;;;;;;;17.33;13.90;;;;;;;;;;5056061;28;20188;-72
2021/08/21 08:46:17;;;;;;;17.47;15.20;;;;;;;;;;5053549;28;20278;-73
2021/08/21 08:48:43;;;;;;;17.70;14.93;;;;;;;;;;5054251;28;20210;-73
2021/08/21 08:51:10;;;;;;;17.73;13.13;;;;;;;;;;5056549;28;20910;-73
2021/08/21 08:53:35;;;;;;;16.10;13.73;;;;;;;;;;5057451;28;20179;-73
2021/08/21 08:56:00;;;;;;;17.70;15.10;;;;;;;;;;5060054;28;20430;-73
2021/08/21 08:58:25;;;;;;;16.70;14.30;;;;;;;;;;5058282;28;20185;-73
2021/08/21 09:00:51;;;;;;;17.90;15.90;;;;;;;;;;5062208;28;20199;-73
2021/08/21 09:03:23;;;;;;;16.43;14.40;;;;;;;;;;5050798;28;20230;-74
2021/08/21 09:05:49;;;;;;;14.33;12.87;;;;;;;;;;5052740;28;20210;-74
2021/08/21 09:08:27;;;;;;;17.73;15.83;;;;;;;;;;5054772;28;20462;-74
2021/08/21 09:10:57;;;;;;;18.77;15.03;;;;;;;;;;5054383;28;20195;-74
2021/08/21 09:13:22;;;;;;;20.00;14.53;;;;;;;;;;5050103;28;20433;-73
2021/08/21 09:15:52;;;;;;;14.80;13.30;;;;;;;;;;5049818;28;20426;-74
2021/08/21 09:18:21;;;;;;;17.33;14.70;;;;;;;;;;5060455;28;20215;-74
2021/08/21 09:20:47;;;;;;;16.67;14.83;;;;;;;;;;5053303;28;20500;-73
2021/08/21 09:23:30;;;;;;;21.40;16.40;;;;;;;;;;5047008;28;20438;-74
2021/08/21 09:26:18;;;;;;;18.67;16.88;;;;;;;;;;5046407;28;20424;-73
2021/08/21 09:28:44;;;;;;;18.67;16.30;;;;;;;;;;5058676;28;20226;-74
2021/08/21 09:31:17;;;;;;;26.23;21.50;;;;;;;;;;5053460;28;20492;-73
2021/08/21 09:33:49;;;;;;;19.87;17.70;;;;;;;;;;5043999;28;20425;-75
2021/08/21 09:36:25;;;;;;;18.53;16.50;;;;;;;;;;5050012;28;20415;-74
2021/08/21 09:38:50;;;;;;;20.13;18.00;;;;;;;;;;5051402;28;20486;-74
2021/08/21 09:41:16;;;;;;;21.20;19.00;;;;;;;;;;5048482;28;20427;-75
2021/08/21 09:43:41;;;;;;;21.27;19.07;;;;;;;;;;5051301;28;20184;-74
2021/08/21 09:46:25;;;;;;;26.87;22.93;;;;;;;;;;5046358;28;20190;-75
2021/08/21 09:48:54;;;;;;;31.00;27.00;;;;;;;;;;5057451;28;20281;-75
2021/08/21 09:51:28;;;;;;;27.30;21.87;;;;;;;;;;5047184;28;20437;-75
2021/08/21 09:53:58;;;;;;;25.77;22.83;;;;;;;;;;5043137;28;20429;-74
2021/08/21 09:56:28;;;;;;;27.10;22.23;;;;;;;;;;5051114;28;20485;-72
2021/08/21 09:58:54;;;;;;;22.30;19.97;;;;;;;;;;5051345;28;20426;-74
2021/08/21 10:01:19;;;;;;;21.63;18.70;;;;;;;;;;5050333;28;20532;-74
2021/08/21 10:03:44;;;;;;;22.93;19.47;;;;;;;;;;5050844;28;20702;-74
2021/08/21 10:06:09;;;;;;;26.87;23.30;;;;;;;;;;5045844;28;20181;-74
2021/08/21 10:08:35;;;;;;;22.03;19.50;;;;;;;;;;5055006;28;20293;-76
2021/08/21 10:11:00;;;;;;;21.87;18.60;;;;;;;;;;5051517;28;20258;-74
2021/08/21 10:13:28;;;;;;;21.17;18.83;;;;;;;;;;5058571;28;20179;-74
2021/08/21 10:15:54;;;;;;;25.57;20.73;;;;;;;;;;5054116;28;20172;-74
2021/08/21 10:18:21;;;;;;;22.00;19.57;;;;;;;;;;5052244;28;20512;-74
2021/08/21 10:20:46;;;;;;;25.40;21.70;;;;;;;;;;5052350;28;20494;-75
2021/08/21 10:23:12;;;;;;;22.83;20.50;;;;;;;;;;5049709;28;20446;-75
2021/08/21 10:25:40;;;;;;;26.30;23.33;;;;;;;;;;5055602;28;20226;-73
2021/08/21 10:28:06;;;;;;;24.40;21.57;;;;;;;;;;5053229;28;20552;-73
2021/08/21 10:30:40;;;;;;;26.27;21.80;;;;;;;;;;5050877;28;20520;-73
2021/08/21 10:33:05;;;;;;;25.30;21.17;;;;;;;;;;5052070;28;20275;-74
2021/08/21 10:35:44;;;;;;;20.97;18.90;;;;;;;;;;5060003;28;20579;-74
2021/08/21 10:38:28;;;;;;;26.13;22.70;;;;;;;;;;5053501;28;20323;-74
2021/08/21 10:40:53;;;;;;;22.37;20.07;;;;;;;;;;5064898;28;21292;-74
2021/08/21 10:43:39;;;;;;;21.03;18.73;;;;;;;;;;5055823;28;20430;-74
2021/08/21 10:46:04;;;;;;;20.70;18.13;;;;;;;;;;5053465;28;20219;-74
2021/08/21 10:48:38;;;;;;;22.70;19.03;;;;;;;;;;5055464;28;20481;-74
2021/08/21 10:51:06;;;;;;;22.57;18.33;;;;;;;;;;5053992;28;20175;-73
2021/08/21 10:53:32;;;;;;;21.70;17.13;;;;;;;;;;5052561;28;20452;-74
2021/08/21 10:55:59;;;;;;;17.30;14.87;;;;;;;;;;5057911;28;20437;-75
2021/08/21 10:58:25;;;;;;;22.80;18.43;;;;;;;;;;5048554;28;20433;-75
2021/08/21 11:01:10;;;;;;;17.40;14.60;;;;;;;;;;5060582;28;20968;-75
2021/08/21 11:03:36;;;;;;;12.13;10.70;;;;;;;;;;5054269;28;20198;-75
2021/08/21 11:06:06;;;;;;;12.43;9.97;;;;;;;;;;5053403;28;20421;-75
2021/08/21 11:08:33;;;;;;;16.27;14.50;;;;;;;;;;5053883;28;20202;-75
2021/08/21 11:11:07;;;;;;;13.47;12.10;;;;;;;;;;5056053;28;20944;-74
2021/08/21 11:13:56;;;;;;;10.30;9.20;;;;;;;;;;5053432;28;20432;-75
2021/08/21 11:16:22;;;;;;;10.87;9.27;;;;;;;;;;5051854;28;20446;-75
2021/08/21 11:18:48;;;;;;;12.90;11.03;;;;;;;;;;5056717;28;21121;-76
2021/08/21 11:21:32;;;;;;;11.93;9.23;;;;;;;;;;5046186;28;20449;-76
2021/08/21 11:23:57;;;;;;;9.30;8.17;;;;;;;;;;5060595;28;20512;-76
2021/08/21 11:26:23;;;;;;;10.40;9.40;;;;;;;;;;5050319;28;20587;-76
2021/08/21 11:29:04;;;;;;;14.70;11.53;;;;;;;;;;5052753;28;20196;-77
2021/08/21 11:31:50;;;;;;;14.80;11.50;;;;;;;;;;5058167;28;20904;-76
2021/08/21 11:34:15;;;;;;;10.63;9.13;;;;;;;;;;5049110;28;20418;-75
2021/08/21 11:36:41;;;;;;;11.73;10.37;;;;;;;;;;5049386;28;20842;-75
2021/08/21 11:39:09;;;;;;;12.23;9.87;;;;;;;;;;5053186;28;20703;-77
2021/08/21 11:41:34;;;;;;;7.00;6.30;;;;;;;;;;5052992;28;20233;-73
2021/08/21 11:44:08;;;;;;;5.23;4.73;;;;;;;;;;5051657;28;20528;-74
2021/08/21 11:46:34;;;;;;;6.27;5.63;;;;;;;;;;5056671;28;20199;-74
2021/08/21 11:49:08;;;;;;;4.30;3.90;;;;;;;;;;5055355;28;21025;-73
2021/08/21 11:51:38;;;;;;;7.60;5.80;;;;;;;;;;5053218;28;20175;-73
2021/08/21 11:54:04;;;;;;;5.30;4.80;;;;;;;;;;5060300;28;20464;-73
2021/08/21 11:56:29;;;;;;;6.70;6.03;;;;;;;;;;5053700;28;20500;-73
2021/08/21 11:58:55;;;;;;;7.93;6.50;;;;;;;;;;5052024;28;20835;-73
2021/08/21 12:01:30;;;;;;;5.23;4.73;;;;;;;;;;5057401;28;20545;-72
2021/08/21 12:06:29;;;;;;;7.63;6.00;;;;;;;;;;5059023;28;20444;-73
2021/08/21 12:09:10;;;;;;;7.57;6.87;;;;;;;;;;5061710;28;20465;-74
2021/08/21 12:11:36;;;;;;;6.10;5.50;;;;;;;;;;5061322;28;20425;-73
2021/08/21 12:14:02;;;;;;;6.10;5.50;;;;;;;;;;5057741;28;20463;-74
2021/08/21 12:16:29;;;;;;;7.60;6.80;;;;;;;;;;5057619;28;21029;-73
2021/08/21 12:18:54;;;;;;;8.40;7.50;;;;;;;;;;5052725;28;20206;-73
2021/08/21 12:21:20;;;;;;;6.57;5.90;;;;;;;;;;5057729;28;20433;-73
2021/08/21 12:23:46;;;;;;;7.67;6.93;;;;;;;;;;5055017;28;20198;-74
2021/08/21 12:26:12;;;;;;;5.80;5.00;;;;;;;;;;5054408;28;20429;-74
2021/08/21 12:28:38;;;;;;;8.70;7.80;;;;;;;;;;5055840;28;20196;-73
2021/08/21 12:31:05;;;;;;;8.63;7.33;;;;;;;;;;5058032;28;20206;-73
2021/08/21 12:33:44;;;;;;;9.90;7.77;;;;;;;;;;5051793;28;20826;-73
2021/08/21 12:36:10;;;;;;;7.73;6.93;;;;;;;;;;5056851;28;20500;-75
2021/08/21 12:38:36;;;;;;;7.93;7.23;;;;;;;;;;5062245;28;20865;-73
2021/08/21 12:41:05;;;;;;;5.83;5.30;;;;;;;;;;5057467;28;20524;-74
2021/08/21 12:43:30;;;;;;;7.90;7.10;;;;;;;;;;5049800;28;20180;-75
2021/08/21 12:45:55;;;;;;;6.00;5.40;;;;;;;;;;5053472;28;20467;-74
2021/08/21 12:48:24;;;;;;;5.97;5.37;;;;;;;;;;5054078;28;20203;-74
2021/08/21 12:50:49;;;;;;;7.83;5.63;;;;;;;;;;5063130;28;20181;-74
2021/08/21 12:53:18;;;;;;;9.40;8.40;;;;;;;;;;5060357;28;20437;-74
2021/08/21 12:55:43;;;;;;;7.33;6.50;;;;;;;;;;5054703;28;20175;-74
2021/08/21 12:58:10;;;;;;;8.30;7.47;;;;;;;;;;5054670;28;20445;-74
2021/08/21 13:00:36;;;;;;;9.00;8.10;;;;;;;;;;5063353;28;20276;-74
2021/08/21 13:03:13;;;;;;;6.50;5.90;;;;;;;;;;5054088;28;20425;-74
2021/08/21 13:05:38;;;;;;;6.33;4.90;;;;;;;;;;5060991;28;20474;-74
2021/08/21 13:08:06;;;;;;;6.20;5.60;;;;;;;;;;5058500;28;20909;-74
2021/08/21 13:10:32;;;;;;;6.93;6.23;;;;;;;;;;5057520;28;20663;-74
2021/08/21 13:12:57;;;;;;;5.53;4.00;;;;;;;;;;5059209;28;20411;-74
2021/08/21 13:15:23;;;;;;;8.07;7.30;;;;;;;;;;5057537;28;20234;-75
2021/08/21 13:17:48;;;;;;;5.40;4.60;;;;;;;;;;5063197;28;20272;-74
2021/08/21 13:20:15;;;;;;;6.50;5.30;;;;;;;;;;5058895;28;20182;-74
2021/08/21 13:22:45;;;;;;;5.23;4.73;;;;;;;;;;5056002;28;20176;-74
2021/08/21 13:25:10;;;;;;;2.97;2.77;;;;;;;;;;5055304;28;20828;-74
2021/08/21 13:27:36;;;;;;;4.20;3.80;;;;;;;;;;5058400;28;20461;-74
2021/08/21 13:30:02;;;;;;;4.00;3.70;;;;;;;;;;5059306;28;20176;-74
2021/08/21 13:32:27;;;;;;;4.93;4.47;;;;;;;;;;5056578;28;20168;-74
2021/08/21 13:34:53;;;;;;;4.37;3.47;;;;;;;;;;5060523;28;20427;-74
2021/08/21 13:37:18;;;;;;;4.83;3.90;;;;;;;;;;5059178;28;20203;-75
2021/08/21 13:39:46;;;;;;;3.83;3.53;;;;;;;;;;5063711;28;20535;-74
2021/08/21 13:42:12;;;;;;;4.03;3.63;;;;;;;;;;5057250;28;20179;-74
2021/08/21 13:44:37;;;;;;;4.87;4.30;;;;;;;;;;5058632;28;20433;-74
2021/08/21 13:47:03;;;;;;;8.40;3.00;;;;;;;;;;5057481;28;20761;-74
2021/08/21 13:49:28;;;;;;;4.10;3.80;;;;;;;;;;5058629;28;20547;-74
2021/08/21 13:51:54;;;;;;;3.70;3.40;;;;;;;;;;5058488;28;20194;-74
2021/08/21 13:54:19;;;;;;;2.87;2.67;;;;;;;;;;5054846;28;20183;-74
2021/08/21 13:56:44;;;;;;;4.07;3.77;;;;;;;;;;5062339;28;20683;-74
2021/08/21 13:59:09;;;;;;;5.27;4.77;;;;;;;;;;5058241;28;20186;-74
2021/08/21 14:01:35;;;;;;;6.30;5.03;;;;;;;;;;5056137;28;20567;-74
2021/08/21 14:04:00;;;;;;;3.60;3.30;;;;;;;;;;5050601;28;20203;-74
2021/08/21 14:06:26;;;;;;;4.97;4.47;;;;;;;;;;5061933;28;20196;-74
2021/08/21 14:08:53;;;;;;;4.53;4.13;;;;;;;;;;5062526;28;20250;-74
2021/08/21 14:11:21;;;;;;;4.10;3.60;;;;;;;;;;5061834;28;20504;-74
2021/08/21 14:13:46;;;;;;;3.10;2.90;;;;;;;;;;5056714;28;20460;-74
2021/08/21 14:16:12;;;;;;;5.30;4.40;;;;;;;;;;5059527;28;20434;-74
2021/08/21 14:18:37;;;;;;;5.10;4.60;;;;;;;;;;5060506;28;20180;-74
2021/08/21 14:21:05;;;;;;;4.30;3.90;;;;;;;;;;5064741;28;20183;-74
2021/08/21 14:23:30;;;;;;;4.27;3.87;;;;;;;;;;5056555;28;20199;-74
2021/08/21 14:25:55;;;;;;;4.40;4.00;;;;;;;;;;5060427;28;20433;-74
2021/08/21 14:28:20;;;;;;;5.47;4.97;;;;;;;;;;5053797;28;20206;-74
2021/08/21 14:30:47;;;;;;;5.40;4.90;;;;;;;;;;5059636;28;20275;-75
2021/08/21 14:33:13;;;;;;;2.97;2.77;;;;;;;;;;5053380;28;20207;-74
2021/08/21 14:35:38;;;;;;;10.97;8.20;;;;;;;;;;5059174;28;20459;-74